Time;durP1;ratioP1;P1;durP2;ratioP2;P2;SDS_P1;SDS_P2;PMS_P1;PMS_P2;Temp;Humidity;BMP_temperature;BMP_pressure;BME280_temperature;BME280_humidity;BME280_pressure;Samples;Min_cycle;Max_cycle;Signal;HPM_P1;HPM_P2
2024/01/18 00:00:14;;;;;;;0.53;0.47;;;13.00;99.90;;;;;;5003221;28;20203;-59
2024/01/18 00:02:40;;;;;;;0.63;0.50;;;12.80;99.90;;;;;;5001550;28;20222;-60
2024/01/18 00:05:10;;;;;;;0.60;0.30;;;12.80;99.90;;;;;;4999462;28;20212;-59
2024/01/18 00:07:36;;;;;;;1.50;0.67;;;12.80;99.90;;;;;;5000939;28;20212;-59
2024/01/18 00:10:03;;;;;;;1.90;0.50;;;12.80;99.90;;;;;;5003370;28;20206;-60
2024/01/18 00:12:30;;;;;;;0.50;0.40;;;12.80;99.90;;;;;;5002741;28;20334;-59
2024/01/18 00:14:57;;;;;;;0.77;0.70;;;12.80;99.90;;;;;;4999757;28;20208;-59
2024/01/18 00:17:23;;;;;;;0.57;0.50;;;12.80;99.90;;;;;;4999675;28;20231;-59
2024/01/18 00:19:50;;;;;;;0.67;0.33;;;12.80;99.90;;;;;;5002389;28;20202;-59
2024/01/18 00:22:18;;;;;;;0.60;0.40;;;12.80;99.90;;;;;;5004906;28;20331;-59
2024/01/18 00:24:45;;;;;;;2.47;0.70;;;12.80;99.90;;;;;;5004692;28;20210;-59
2024/01/18 00:27:12;;;;;;;0.57;0.53;;;12.80;99.90;;;;;;5003419;28;20208;-59
2024/01/18 00:29:38;;;;;;;0.93;0.50;;;12.70;99.90;;;;;;5004725;28;20207;-60
2024/01/18 00:32:06;;;;;;;0.90;0.50;;;12.70;99.90;;;;;;5006761;28;20280;-60
2024/01/18 00:34:32;;;;;;;0.50;0.50;;;12.70;99.90;;;;;;5005968;28;20218;-60
2024/01/18 00:36:59;;;;;;;0.60;0.40;;;12.70;99.90;;;;;;5003367;28;20203;-60
2024/01/18 00:39:27;;;;;;;0.37;0.30;;;12.70;99.90;;;;;;5003381;28;20262;-60
2024/01/18 00:41:54;;;;;;;0.70;0.60;;;12.70;99.90;;;;;;5006147;28;20695;-60
2024/01/18 00:44:20;;;;;;;0.70;0.50;;;12.70;99.90;;;;;;5006233;28;20207;-60
2024/01/18 00:46:47;;;;;;;0.70;0.40;;;12.60;99.90;;;;;;5006302;28;20674;-60
2024/01/18 00:49:14;;;;;;;0.50;0.40;;;12.50;99.90;;;;;;5006445;28;20211;-59
2024/01/18 00:51:40;;;;;;;1.30;0.70;;;12.40;99.90;;;;;;5006285;28;20623;-59
2024/01/18 00:54:07;;;;;;;0.40;0.40;;;12.30;99.90;;;;;;5006181;28;20254;-59
2024/01/18 00:56:35;;;;;;;0.60;0.50;;;12.20;99.90;;;;;;5005395;28;20253;-59
2024/01/18 00:59:02;;;;;;;1.03;0.60;;;12.10;99.90;;;;;;5002936;28;20250;-59
2024/01/18 01:01:28;;;;;;;0.67;0.33;;;12.00;99.90;;;;;;5002807;28;20678;-59
2024/01/18 01:03:55;;;;;;;0.43;0.40;;;12.00;99.90;;;;;;5006043;28;20223;-59
2024/01/18 01:06:22;;;;;;;0.40;0.37;;;11.90;99.90;;;;;;5006113;28;20211;-59
2024/01/18 01:08:49;;;;;;;0.60;0.50;;;11.90;99.90;;;;;;5003520;28;20211;-59
2024/01/18 01:11:17;;;;;;;0.63;0.50;;;11.90;99.90;;;;;;5002579;28;20701;-59
2024/01/18 01:13:45;;;;;;;0.77;0.50;;;11.80;99.90;;;;;;5004188;28;20582;-59
2024/01/18 01:16:12;;;;;;;0.53;0.30;;;11.90;99.90;;;;;;5005906;28;20227;-60
2024/01/18 01:18:39;;;;;;;0.40;0.40;;;12.00;99.90;;;;;;5004635;28;20676;-59
2024/01/18 01:21:05;;;;;;;1.60;0.37;;;12.00;99.90;;;;;;5002677;28;20214;-58
2024/01/18 01:23:38;;;;;;;1.37;0.60;;;12.10;99.90;;;;;;5002421;28;20282;-59
2024/01/18 01:26:05;;;;;;;1.10;0.43;;;12.20;99.90;;;;;;5005551;28;20246;-59
2024/01/18 01:28:32;;;;;;;0.57;0.47;;;12.20;99.90;;;;;;5005452;28;20245;-59
2024/01/18 01:31:00;;;;;;;0.40;0.37;;;12.30;99.90;;;;;;5002367;28;20203;-60
2024/01/18 01:33:28;;;;;;;0.57;0.40;;;12.30;99.90;;;;;;5001231;28;20224;-60
2024/01/18 01:35:54;;;;;;;0.57;0.40;;;12.30;99.90;;;;;;5005028;28;20606;-60
2024/01/18 01:38:21;;;;;;;0.43;0.40;;;12.40;99.90;;;;;;5005579;28;20692;-60
2024/01/18 01:40:48;;;;;;;1.80;0.50;;;12.40;99.90;;;;;;5003153;28;20233;-60
2024/01/18 01:43:16;;;;;;;0.80;0.33;;;12.40;99.90;;;;;;5002002;28;20224;-60
2024/01/18 01:45:43;;;;;;;2.10;0.60;;;12.50;99.90;;;;;;5003565;28;20203;-60
2024/01/18 01:48:11;;;;;;;1.17;0.50;;;12.50;99.90;;;;;;5005553;28;20297;-59
2024/01/18 01:50:39;;;;;;;0.60;0.50;;;12.50;99.90;;;;;;5004342;28;20568;-60
2024/01/18 01:53:08;;;;;;;0.50;0.50;;;12.50;99.90;;;;;;5001772;28;20608;-60
2024/01/18 01:55:36;;;;;;;2.17;0.43;;;12.50;99.90;;;;;;5001847;28;20595;-60
2024/01/18 01:58:04;;;;;;;0.40;0.30;;;12.60;99.90;;;;;;5005636;28;20269;-60
2024/01/18 02:00:31;;;;;;;0.53;0.37;;;12.60;99.90;;;;;;5005036;28;20685;-59
2024/01/18 02:02:57;;;;;;;1.03;0.53;;;12.60;99.90;;;;;;5005167;28;20237;-59
2024/01/18 02:05:26;;;;;;;0.50;0.40;;;12.50;99.90;;;;;;5004837;28;20203;-59
2024/01/18 02:07:53;;;;;;;0.33;0.33;;;12.50;99.90;;;;;;5002126;28;20215;-59
2024/01/18 02:10:20;;;;;;;2.27;0.47;;;12.50;99.90;;;;;;5001357;28;20208;-60
2024/01/18 02:12:49;;;;;;;0.60;0.37;;;12.50;99.90;;;;;;5003377;28;20262;-59
2024/01/18 02:15:15;;;;;;;0.40;0.40;;;12.50;99.90;;;;;;5004717;28;20211;-59
2024/01/18 02:17:42;;;;;;;0.57;0.30;;;12.50;99.90;;;;;;5003386;28;20404;-60
2024/01/18 02:20:10;;;;;;;0.53;0.33;;;12.50;99.90;;;;;;5001252;28;20262;-59
2024/01/18 02:22:42;;;;;;;0.50;0.50;;;12.50;99.90;;;;;;5001511;28;20224;-59
2024/01/18 02:25:24;;;;;;;0.90;0.50;;;12.60;99.90;;;;;;5004627;28;20639;-59
2024/01/18 02:27:55;;;;;;;2.23;0.60;;;12.60;99.90;;;;;;5002063;28;20211;-60
2024/01/18 02:30:21;;;;;;;0.80;0.60;;;12.50;99.90;;;;;;5001504;28;20223;-59
2024/01/18 02:32:48;;;;;;;0.33;0.30;;;12.50;99.90;;;;;;5002693;28;20650;-60
2024/01/18 02:35:15;;;;;;;0.40;0.40;;;12.50;99.90;;;;;;5004195;28;20281;-60
2024/01/18 02:37:42;;;;;;;1.90;0.40;;;12.50;99.90;;;;;;5003401;28;20562;-59
2024/01/18 02:40:10;;;;;;;1.80;0.53;;;12.40;99.90;;;;;;5000888;28;20207;-59
2024/01/18 02:42:38;;;;;;;0.80;0.40;;;12.50;99.90;;;;;;5001276;28;20228;-59
2024/01/18 02:45:06;;;;;;;1.57;0.30;;;12.50;99.90;;;;;;5003959;28;20677;-59
2024/01/18 02:47:34;;;;;;;0.73;0.40;;;12.60;99.90;;;;;;5004130;28;20583;-59
2024/01/18 02:50:01;;;;;;;0.93;0.30;;;12.60;99.90;;;;;;4993172;28;20207;-59
2024/01/18 02:52:28;;;;;;;0.97;0.47;;;12.60;99.90;;;;;;5000622;28;20231;-59
2024/01/18 02:54:54;;;;;;;0.70;0.50;;;12.60;99.90;;;;;;5003127;28;20199;-59
2024/01/18 02:57:21;;;;;;;0.40;0.40;;;12.60;99.90;;;;;;5003859;28;20692;-59
2024/01/18 02:59:49;;;;;;;1.97;1.10;;;12.50;99.90;;;;;;5002154;28;20211;-59
2024/01/18 03:02:16;;;;;;;1.33;0.70;;;12.50;99.90;;;;;;5000503;28;20223;-59
2024/01/18 03:04:43;;;;;;;0.93;0.60;;;12.50;99.90;;;;;;5001753;28;20216;-59
2024/01/18 03:07:10;;;;;;;0.57;0.40;;;12.50;99.90;;;;;;5004006;28;20290;-59
2024/01/18 03:09:37;;;;;;;0.30;0.30;;;12.50;99.90;;;;;;5003747;28;20449;-59
2024/01/18 03:12:04;;;;;;;0.73;0.53;;;12.50;99.90;;;;;;5000369;28;20250;-60
2024/01/18 03:14:31;;;;;;;0.70;0.50;;;12.40;99.90;;;;;;5000354;28;20481;-59
2024/01/18 03:16:59;;;;;;;1.00;0.40;;;12.40;99.90;;;;;;5003316;28;20297;-59
2024/01/18 03:19:26;;;;;;;0.70;0.53;;;12.40;99.90;;;;;;5003865;28;20285;-59
2024/01/18 03:21:53;;;;;;;1.13;0.50;;;12.40;99.90;;;;;;5000933;28;20607;-59
2024/01/18 03:24:19;;;;;;;0.53;0.53;;;12.50;99.90;;;;;;5000067;28;20320;-59
2024/01/18 03:26:46;;;;;;;0.50;0.43;;;12.50;99.90;;;;;;5000209;28;20204;-58
2024/01/18 03:29:13;;;;;;;0.77;0.60;;;12.40;99.90;;;;;;5000115;28;20208;-59
2024/01/18 03:31:39;;;;;;;1.20;0.70;;;12.30;99.90;;;;;;5000798;28;20537;-59
2024/01/18 03:34:07;;;;;;;1.23;1.13;;;12.10;99.90;;;;;;5003634;28;20273;-59
2024/01/18 03:36:34;;;;;;;3.80;3.00;;;11.80;99.90;;;;;;5003539;28;20258;-60
2024/01/18 03:39:01;;;;;;;3.00;2.80;;;11.50;99.90;;;;;;5003741;28;20203;-60
2024/01/18 03:41:27;;;;;;;3.33;3.03;;;11.10;99.90;;;;;;5003500;28;20207;-60
2024/01/18 03:43:54;;;;;;;3.67;3.27;;;10.90;99.90;;;;;;5000590;28;20223;-60
2024/01/18 03:46:21;;;;;;;3.63;3.27;;;10.70;99.90;;;;;;5000058;28;20207;-60
2024/01/18 03:48:47;;;;;;;3.57;3.27;;;10.60;99.90;;;;;;5001800;28;20591;-60
2024/01/18 03:51:15;;;;;;;3.37;3.07;;;10.70;99.90;;;;;;5003332;28;20203;-62
2024/01/18 03:53:43;;;;;;;3.90;3.60;;;10.70;99.90;;;;;;5002301;28;20227;-61
2024/01/18 03:56:11;;;;;;;3.80;3.50;;;10.70;99.90;;;;;;4999105;28;20291;-60
2024/01/18 03:58:38;;;;;;;3.60;3.10;;;10.60;99.90;;;;;;4999979;28;20215;-60
2024/01/18 04:01:04;;;;;;;3.77;3.47;;;10.60;99.90;;;;;;5003311;28;20253;-60
2024/01/18 04:03:31;;;;;;;3.50;3.20;;;10.60;99.90;;;;;;5003068;28;20287;-60
2024/01/18 04:05:59;;;;;;;3.67;3.37;;;10.70;99.90;;;;;;4999544;28;20203;-60
2024/01/18 04:08:27;;;;;;;3.37;3.07;;;10.50;99.90;;;;;;4999674;28;20662;-60
2024/01/18 04:10:54;;;;;;;3.23;3.00;;;10.50;99.90;;;;;;5001971;28;20634;-60
2024/01/18 04:13:20;;;;;;;3.37;3.07;;;10.50;99.90;;;;;;5002813;28;20685;-60
2024/01/18 04:15:47;;;;;;;3.80;3.50;;;10.40;99.90;;;;;;5001248;28;20222;-60
2024/01/18 04:18:14;;;;;;;3.70;3.40;;;10.00;99.90;;;;;;4999457;28;20560;-60
2024/01/18 04:20:40;;;;;;;4.23;3.90;;;10.10;99.90;;;;;;5000058;28;20226;-60
2024/01/18 04:23:07;;;;;;;7.90;6.17;;;9.90;99.90;;;;;;5002747;28;20224;-60
2024/01/18 04:25:35;;;;;;;3.73;3.43;;;9.70;99.90;;;;;;5002654;28;20253;-60
2024/01/18 04:28:02;;;;;;;4.83;3.80;;;9.80;99.90;;;;;;4991544;28;20674;-60
2024/01/18 04:30:28;;;;;;;3.93;3.27;;;9.80;99.90;;;;;;4999461;28;20266;-60
2024/01/18 04:32:55;;;;;;;4.40;3.87;;;9.90;99.90;;;;;;5001892;28;20339;-60
2024/01/18 04:35:22;;;;;;;4.17;3.77;;;9.90;99.90;;;;;;5002666;28;20214;-60
2024/01/18 04:37:48;;;;;;;3.97;3.67;;;9.90;99.90;;;;;;5000979;28;20213;-61
2024/01/18 04:40:15;;;;;;;4.27;3.60;;;9.90;99.90;;;;;;4999354;28;20203;-60
2024/01/18 04:42:43;;;;;;;4.73;3.40;;;9.90;99.90;;;;;;4999937;28;20713;-60
2024/01/18 04:45:10;;;;;;;4.30;3.80;;;9.80;99.90;;;;;;5002292;28;20203;-60
2024/01/18 04:47:36;;;;;;;6.13;3.57;;;9.60;99.90;;;;;;5002717;28;20207;-60
2024/01/18 04:50:03;;;;;;;4.50;4.10;;;9.50;99.90;;;;;;4991404;28;20206;-60
2024/01/18 04:52:30;;;;;;;4.50;4.10;;;9.30;99.90;;;;;;4998982;28;20645;-60
2024/01/18 04:54:58;;;;;;;5.23;3.60;;;9.30;99.90;;;;;;5001486;28;20725;-60
2024/01/18 04:57:26;;;;;;;4.17;3.87;;;9.50;99.90;;;;;;5002828;28;20593;-60
2024/01/18 04:59:54;;;;;;;5.00;4.50;;;9.50;99.90;;;;;;5000535;28;20214;-60
2024/01/18 05:02:21;;;;;;;8.73;6.03;;;9.60;99.90;;;;;;4999366;28;20231;-60
2024/01/18 05:04:48;;;;;;;4.80;4.40;;;9.80;99.90;;;;;;5000402;28;20216;-60
2024/01/18 05:07:14;;;;;;;5.80;5.30;;;9.90;99.90;;;;;;5002461;28;20199;-60
2024/01/18 05:09:41;;;;;;;4.40;4.00;;;10.00;99.90;;;;;;5004513;28;20210;-60
2024/01/18 05:12:08;;;;;;;5.53;4.30;;;10.00;99.90;;;;;;5002621;28;20211;-60
2024/01/18 05:14:35;;;;;;;4.80;4.30;;;10.00;99.90;;;;;;5002443;28;20227;-60
2024/01/18 05:17:10;;;;;;;4.57;4.17;;;9.90;99.90;;;;;;5005590;28;20207;-60
2024/01/18 05:19:37;;;;;;;5.30;4.13;;;9.90;99.90;;;;;;5005809;28;20680;-60
2024/01/18 05:22:04;;;;;;;5.03;4.13;;;10.00;99.90;;;;;;4994294;28;20689;-60
2024/01/18 05:24:30;;;;;;;5.70;4.90;;;10.10;99.90;;;;;;5002521;28;20208;-60
2024/01/18 05:26:57;;;;;;;5.17;4.67;;;10.10;99.90;;;;;;5004743;28;20677;-60
2024/01/18 05:29:24;;;;;;;4.90;4.40;;;9.90;99.90;;;;;;5005794;28;20261;-61
2024/01/18 05:31:51;;;;;;;5.17;4.77;;;9.70;99.90;;;;;;5003717;28;20265;-61
2024/01/18 05:34:19;;;;;;;5.20;4.80;;;9.50;99.90;;;;;;5001868;28;20226;-61
2024/01/18 05:36:47;;;;;;;6.50;5.73;;;9.40;99.90;;;;;;5003239;28;20215;-61
2024/01/18 05:39:14;;;;;;;6.13;4.80;;;9.50;99.90;;;;;;5005672;28;20199;-61
2024/01/18 05:41:41;;;;;;;5.77;5.27;;;9.50;99.90;;;;;;5005129;28;20561;-61
2024/01/18 05:44:07;;;;;;;5.80;5.20;;;9.50;99.90;;;;;;5002294;28;20228;-61
2024/01/18 05:46:34;;;;;;;5.07;4.43;;;9.40;99.90;;;;;;5001800;28;20283;-61
2024/01/18 05:49:02;;;;;;;5.37;4.87;;;9.30;99.90;;;;;;5004626;28;20211;-61
2024/01/18 05:51:30;;;;;;;5.77;5.17;;;9.20;99.90;;;;;;5005472;28;20214;-61
2024/01/18 05:53:57;;;;;;;5.40;4.37;;;9.40;99.90;;;;;;5002465;28;20234;-61
2024/01/18 05:56:23;;;;;;;5.03;4.63;;;9.50;99.90;;;;;;5001742;28;20203;-61
2024/01/18 05:58:50;;;;;;;7.13;4.20;;;9.40;99.90;;;;;;5003004;28;20283;-61
2024/01/18 06:01:17;;;;;;;5.87;4.63;;;9.40;99.90;;;;;;5005078;28;20210;-61
2024/01/18 06:03:44;;;;;;;5.00;4.50;;;9.40;99.90;;;;;;5004379;28;20222;-61
2024/01/18 06:06:11;;;;;;;5.87;4.50;;;9.30;99.90;;;;;;5001162;28;20204;-61
2024/01/18 06:08:39;;;;;;;4.57;3.20;;;9.20;99.90;;;;;;5001742;28;20237;-60
2024/01/18 06:11:07;;;;;;;4.47;3.00;;;8.80;99.90;;;;;;5001624;28;20204;-60
2024/01/18 06:13:34;;;;;;;2.73;2.27;;;8.40;99.90;;;;;;5001478;28;20301;-60
2024/01/18 06:16:00;;;;;;;2.73;2.00;;;8.00;99.90;;;;;;5003747;28;20207;-60
2024/01/18 06:18:27;;;;;;;2.00;1.90;;;7.40;99.90;;;;;;5004970;28;20230;-60
2024/01/18 06:20:54;;;;;;;2.23;1.90;;;7.40;99.90;;;;;;5002648;28;20222;-61
2024/01/18 06:23:21;;;;;;;2.13;1.50;;;7.30;99.90;;;;;;5001211;28;20227;-61
2024/01/18 06:25:49;;;;;;;2.03;1.50;;;7.40;99.90;;;;;;5001827;28;20821;-61
2024/01/18 06:28:15;;;;;;;2.00;1.60;;;7.30;99.90;;;;;;5004658;28;20230;-60
2024/01/18 06:30:44;;;;;;;1.90;1.50;;;7.20;99.90;;;;;;5004164;28;20572;-60
2024/01/18 06:33:11;;;;;;;1.80;1.40;;;7.30;99.90;;;;;;5000953;28;20617;-60
2024/01/18 06:35:38;;;;;;;1.70;1.60;;;7.40;99.90;;;;;;5000847;28;20211;-60
2024/01/18 06:38:05;;;;;;;2.43;1.73;;;7.50;99.90;;;;;;5004334;28;20206;-60
2024/01/18 06:40:31;;;;;;;1.57;1.47;;;7.50;99.90;;;;;;5004415;28;20265;-60
2024/01/18 06:43:00;;;;;;;4.77;1.80;;;7.60;99.90;;;;;;5001511;28;20300;-60
2024/01/18 06:45:26;;;;;;;3.07;1.90;;;7.70;99.90;;;;;;5000690;28;20215;-60
2024/01/18 06:47:53;;;;;;;2.37;1.80;;;7.70;99.90;;;;;;5002200;28;20685;-60
2024/01/18 06:50:20;;;;;;;2.47;2.10;;;7.60;99.90;;;;;;5004262;28;20261;-60
2024/01/18 06:52:48;;;;;;;3.83;1.60;;;7.60;99.90;;;;;;5002897;28;20242;-60
2024/01/18 06:55:15;;;;;;;2.17;1.60;;;7.40;99.90;;;;;;5000265;28;20694;-60
2024/01/18 06:57:41;;;;;;;3.97;1.70;;;7.40;99.90;;;;;;5000434;28;20298;-60
2024/01/18 07:00:10;;;;;;;1.87;1.30;;;7.40;99.90;;;;;;5003539;28;20241;-60
2024/01/18 07:02:37;;;;;;;4.43;1.87;;;7.50;99.90;;;;;;5003910;28;20242;-60
2024/01/18 07:05:04;;;;;;;1.67;1.23;;;7.50;99.90;;;;;;5000599;28;20771;-59
2024/01/18 07:07:31;;;;;;;1.17;0.90;;;7.50;99.90;;;;;;5000394;28;20624;-60
2024/01/18 07:09:57;;;;;;;4.43;1.67;;;7.50;99.90;;;;;;5002425;28;20211;-60
2024/01/18 07:12:24;;;;;;;1.13;1.00;;;7.50;99.90;;;;;;5003641;28;20308;-60
2024/01/18 07:14:51;;;;;;;1.40;1.10;;;7.50;99.90;;;;;;5002368;28;20345;-61
2024/01/18 07:17:19;;;;;;;1.20;1.10;;;7.50;99.90;;;;;;5000291;28;20204;-60
2024/01/18 07:19:46;;;;;;;1.60;1.00;;;7.50;99.90;;;;;;5000757;28;20590;-60
2024/01/18 07:22:12;;;;;;;3.93;1.10;;;7.50;99.90;;;;;;5003617;28;20222;-60
2024/01/18 07:24:39;;;;;;;2.17;1.90;;;7.60;99.90;;;;;;5003380;28;20261;-60
2024/01/18 07:27:09;;;;;;;1.27;1.10;;;7.00;99.90;;;;;;5000322;28;20208;-60
2024/01/18 07:29:36;;;;;;;1.57;1.20;;;7.60;99.90;;;;;;5000240;28;20266;-60
2024/01/18 07:32:03;;;;;;;2.30;1.20;;;7.60;99.90;;;;;;5001795;28;20214;-60
2024/01/18 07:34:32;;;;;;;1.57;1.03;;;7.70;99.90;;;;;;5003434;28;20229;-60
2024/01/18 07:36:59;;;;;;;3.53;1.40;;;7.70;99.90;;;;;;5000979;28;20261;-60
2024/01/18 07:39:27;;;;;;;2.43;1.60;;;7.60;99.90;;;;;;5000022;28;20218;-60
2024/01/18 07:41:54;;;;;;;2.53;1.60;;;7.60;99.90;;;;;;5001652;28;20242;-60
2024/01/18 07:44:20;;;;;;;1.23;1.13;;;7.60;99.90;;;;;;5003246;28;20210;-61
2024/01/18 07:46:47;;;;;;;1.67;1.37;;;7.60;99.90;;;;;;5002514;28;20280;-61
2024/01/18 07:49:13;;;;;;;3.30;1.27;;;7.60;99.90;;;;;;4999872;28;20207;-61
2024/01/18 07:51:43;;;;;;;1.40;1.30;;;7.50;99.90;;;;;;4999827;28;20216;-61
2024/01/18 07:54:10;;;;;;;2.03;1.40;;;7.60;99.90;;;;;;4991746;28;20227;-60
2024/01/18 07:56:36;;;;;;;2.50;1.43;;;7.60;99.90;;;;;;4999686;28;20207;-60
2024/01/18 07:59:03;;;;;;;1.70;1.40;;;7.70;99.90;;;;;;5002701;28;20211;-60
2024/01/18 08:01:30;;;;;;;2.37;2.13;;;7.60;99.90;;;;;;5002843;28;20229;-60
2024/01/18 08:03:56;;;;;;;3.00;1.63;;;7.50;99.90;;;;;;5001252;28;20232;-60
2024/01/18 08:06:23;;;;;;;1.67;1.20;;;7.30;99.90;;;;;;4999520;28;20253;-60
2024/01/18 08:08:51;;;;;;;1.97;1.60;;;7.20;99.90;;;;;;5000954;28;20222;-59
2024/01/18 08:11:18;;;;;;;1.80;1.10;;;7.30;99.90;;;;;;5003324;28;20206;-60
2024/01/18 08:13:44;;;;;;;2.70;1.97;;;7.40;99.90;;;;;;5002602;28;20711;-60
2024/01/18 08:16:11;;;;;;;1.40;1.23;;;7.40;99.90;;;;;;4999777;28;20208;-60
2024/01/18 08:18:38;;;;;;;1.30;1.20;;;7.40;99.90;;;;;;4999725;28;20633;-60
2024/01/18 08:21:05;;;;;;;1.70;1.30;;;7.30;99.90;;;;;;5002338;28;20203;-60
2024/01/18 08:23:32;;;;;;;1.20;1.10;;;7.40;99.90;;;;;;5003274;28;20230;-60
2024/01/18 08:26:00;;;;;;;1.07;0.97;;;7.40;99.90;;;;;;5000583;28;20708;-61
2024/01/18 08:28:27;;;;;;;3.23;2.13;;;7.20;99.90;;;;;;4999630;28;20207;-59
2024/01/18 08:30:53;;;;;;;1.67;1.30;;;7.00;99.90;;;;;;5000807;28;20211;-60
2024/01/18 08:33:20;;;;;;;1.67;1.50;;;7.00;99.90;;;;;;5002757;28;20226;-60
2024/01/18 08:35:47;;;;;;;1.30;1.20;;;7.00;99.90;;;;;;5002289;28;20272;-60
2024/01/18 08:38:13;;;;;;;2.77;1.37;;;6.70;99.90;;;;;;4999775;28;20204;-60
2024/01/18 08:40:40;;;;;;;1.50;1.37;;;6.70;99.90;;;;;;4999651;28;20215;-60
2024/01/18 08:43:08;;;;;;;1.90;1.70;;;6.60;99.90;;;;;;5003921;28;20229;-61
2024/01/18 08:45:36;;;;;;;4.27;3.60;;;6.60;99.90;;;;;;5006156;28;20568;-61
2024/01/18 08:48:03;;;;;;;1.90;1.70;;;6.60;99.90;;;;;;5003949;28;20236;-61
2024/01/18 08:50:30;;;;;;;2.70;1.67;;;6.70;99.90;;;;;;5003232;28;20211;-60
2024/01/18 08:52:56;;;;;;;1.87;1.60;;;6.80;99.90;;;;;;5004595;28;20272;-60
2024/01/18 08:55:24;;;;;;;20.60;17.07;;;6.90;99.90;;;;;;5006015;28;20593;-60
2024/01/18 08:57:50;;;;;;;3.77;3.00;;;7.00;99.90;;;;;;5005437;28;20207;-59
2024/01/18 09:00:21;;;;;;;2.20;1.97;;;7.10;99.90;;;;;;5002783;28;20569;-61
2024/01/18 09:02:48;;;;;;;8.70;5.40;;;7.10;99.90;;;;;;5003063;28;20242;-59
2024/01/18 09:05:15;;;;;;;1.83;1.60;;;7.10;99.90;;;;;;5006108;28;20207;-59
2024/01/18 09:07:42;;;;;;;1.93;1.70;;;7.20;99.90;;;;;;5006159;28;20215;-59
2024/01/18 09:10:09;;;;;;;3.70;1.70;;;7.20;99.90;;;;;;5002853;28;20294;-59
2024/01/18 09:12:36;;;;;;;2.47;2.13;;;7.30;99.90;;;;;;5002569;28;20227;-59
2024/01/18 09:15:03;;;;;;;2.80;2.20;;;7.40;99.90;;;;;;5004567;28;20281;-60
2024/01/18 09:17:31;;;;;;;3.13;2.30;;;7.40;99.90;;;;;;5005855;28;20672;-60
2024/01/18 09:19:58;;;;;;;4.33;2.33;;;7.40;99.90;;;;;;5004093;28;20207;-59
2024/01/18 09:22:25;;;;;;;2.83;2.37;;;7.40;99.90;;;;;;5002483;28;20258;-59
2024/01/18 09:24:52;;;;;;;2.47;2.20;;;7.40;99.90;;;;;;5002990;28;20615;-59
2024/01/18 09:27:19;;;;;;;2.73;2.03;;;7.40;99.90;;;;;;5005572;28;20623;-60
2024/01/18 09:29:45;;;;;;;3.13;2.80;;;7.40;99.90;;;;;;5005384;28;20590;-59
2024/01/18 09:32:12;;;;;;;2.70;2.00;;;7.30;99.90;;;;;;5002043;28;20210;-60
2024/01/18 09:34:40;;;;;;;1.97;1.87;;;7.20;99.90;;;;;;5001883;28;20227;-59
2024/01/18 09:37:07;;;;;;;2.30;2.10;;;7.20;99.90;;;;;;5004845;28;20213;-59
2024/01/18 09:39:33;;;;;;;1.70;1.60;;;7.20;99.90;;;;;;5005629;28;20653;-59
2024/01/18 09:42:03;;;;;;;1.50;1.40;;;7.20;99.90;;;;;;5003284;28;20230;-59
2024/01/18 09:44:31;;;;;;;2.20;1.80;;;7.30;99.90;;;;;;5001684;28;20207;-59
2024/01/18 09:46:58;;;;;;;1.87;1.67;;;7.30;99.90;;;;;;5003592;28;20298;-59
2024/01/18 09:49:26;;;;;;;1.70;1.60;;;7.30;99.90;;;;;;5005353;28;20688;-60
2024/01/18 09:51:55;;;;;;;1.50;1.40;;;7.10;99.90;;;;;;5004351;28;20215;-60
2024/01/18 09:54:22;;;;;;;1.10;1.00;;;7.00;99.90;;;;;;5049684;22;20237;-56
2024/01/18 09:56:53;;;;;;;1.33;0.80;;;6.90;99.90;;;;;;5032881;28;20374;-57
2024/01/18 09:59:22;;;;;;;5.57;4.43;;;6.90;99.90;;;;;;5033090;28;20686;-58
2024/01/18 10:01:49;;;;;;;1.50;0.77;;;6.60;99.90;;;;;;5033326;28;20207;-56
2024/01/18 10:04:19;;;;;;;2.43;1.73;;;6.40;99.90;;;;;;5025017;28;20222;-59
2024/01/18 10:06:45;;;;;;;2.23;1.10;;;6.10;99.90;;;;;;5024853;28;20630;-58
2024/01/18 10:09:14;;;;;;;1.57;1.00;;;6.30;99.90;;;;;;5021463;28;20203;-58
2024/01/18 10:11:41;;;;;;;2.10;2.00;;;6.40;99.90;;;;;;5021604;28;20253;-57
2024/01/18 10:14:08;;;;;;;1.67;1.57;;;6.40;99.90;;;;;;5024155;28;20305;-58
2024/01/18 10:16:37;;;;;;;3.30;1.70;;;6.40;99.90;;;;;;5024748;28;20206;-57
2024/01/18 10:19:06;;;;;;;3.17;1.20;;;6.40;99.90;;;;;;5020394;28;20302;-62
2024/01/18 10:21:35;;;;;;;0.70;0.70;;;6.30;99.90;;;;;;5020711;28;20229;-58
2024/01/18 10:24:03;;;;;;;1.55;0.80;;;6.30;99.90;;;;;;5022173;28;20435;-63
2024/01/18 10:26:32;;;;;;;0.77;0.73;;;6.10;99.90;;;;;;5024136;28;20830;-59
2024/01/18 10:28:59;;;;;;;0.80;0.70;;;6.00;99.90;;;;;;5022509;28;20294;-63
2024/01/18 10:31:26;;;;;;;1.97;1.00;;;5.70;99.90;;;;;;5021001;28;20206;-64
2024/01/18 10:33:52;;;;;;;1.10;0.73;;;5.50;99.90;;;;;;5021760;28;20641;-64
2024/01/18 10:36:19;;;;;;;1.20;0.87;;;5.40;99.90;;;;;;5010163;28;20210;-64
2024/01/18 10:38:46;;;;;;;1.47;0.90;;;5.10;99.90;;;;;;5007457;28;20233;-66
2024/01/18 10:41:18;;;;;;;1.10;0.97;;;5.00;99.90;;;;;;5011873;28;20203;-59
2024/01/18 10:43:48;;;;;;;0.73;0.73;;;4.80;99.90;;;;;;5012361;28;20230;-59
2024/01/18 10:46:15;;;;;;;0.97;0.93;;;4.60;99.90;;;;;;5012299;28;20555;-58
2024/01/18 10:48:45;;;;;;;2.17;1.13;;;4.30;99.90;;;;;;5012006;28;20595;-58
2024/01/18 10:51:12;;;;;;;1.37;1.20;;;4.00;99.90;;;;;;5011887;28;20257;-60
2024/01/18 10:53:41;;;;;;;2.53;1.77;;;3.90;99.90;;;;;;5011959;28;20326;-64
2024/01/18 10:56:08;;;;;;;1.20;1.10;;;3.80;99.90;;;;;;5009867;28;20234;-61
2024/01/18 10:58:34;;;;;;;0.90;0.90;;;3.80;99.90;;;;;;5011604;28;20253;-62
2024/01/18 11:01:03;;;;;;;1.13;1.03;;;3.70;99.90;;;;;;5012028;28;20211;-62
2024/01/18 11:03:30;;;;;;;4.27;2.77;;;3.50;99.90;;;;;;5011524;28;20724;-58
2024/01/18 11:05:59;;;;;;;1.43;1.20;;;3.60;99.90;;;;;;5012935;28;20231;-59
2024/01/18 11:08:26;;;;;;;1.10;1.00;;;3.70;99.90;;;;;;5023871;28;20679;-63
2024/01/18 11:10:53;;;;;;;1.40;1.30;;;3.70;99.90;;;;;;5023243;28;20213;-63
2024/01/18 11:13:20;;;;;;;1.60;1.20;;;3.80;99.90;;;;;;5020314;28;20289;-62
2024/01/18 11:15:47;;;;;;;1.17;1.07;;;3.80;99.90;;;;;;5019906;28;20252;-66
2024/01/18 11:18:15;;;;;;;4.10;1.43;;;3.90;99.90;;;;;;5012196;28;20724;-63
2024/01/18 11:21:08;;;;;;;1.17;1.10;;;3.80;99.90;;;;;;5020563;28;20210;-62
2024/01/18 11:23:36;;;;;;;1.63;1.50;;;3.70;99.90;;;;;;5014987;28;20238;-61
2024/01/18 11:26:05;;;;;;;3.20;1.53;;;3.80;99.90;;;;;;5021844;28;20647;-62
2024/01/18 11:28:32;;;;;;;2.10;1.90;;;4.10;99.90;;;;;;5023322;28;20293;-62
2024/01/18 11:30:59;;;;;;;2.33;2.13;;;4.40;99.90;;;;;;5022086;28;20236;-63
2024/01/18 11:33:28;;;;;;;2.60;2.37;;;4.50;99.90;;;;;;5025165;28;20316;-62
2024/01/18 11:35:55;;;;;;;4.43;4.00;;;4.60;99.90;;;;;;5022361;28;20226;-63
2024/01/18 11:38:23;;;;;;;2.20;1.93;;;4.70;99.90;;;;;;5019912;28;20276;-61
2024/01/18 11:40:51;;;;;;;6.40;3.23;;;4.60;99.90;;;;;;5019972;28;20211;-59
2024/01/18 11:43:18;;;;;;;2.20;2.00;;;4.60;99.90;;;;;;5022975;28;20224;-60
2024/01/18 11:45:48;;;;;;;1.97;1.87;;;4.60;99.90;;;;;;5023141;28;20210;-59
2024/01/18 11:48:15;;;;;;;2.77;2.30;;;4.60;99.90;;;;;;5020268;28;20199;-60
2024/01/18 11:50:43;;;;;;;1.70;1.60;;;4.40;99.90;;;;;;5019962;28;20203;-60
2024/01/18 11:53:12;;;;;;;2.43;1.87;;;4.30;99.90;;;;;;5022566;28;20234;-59
2024/01/18 11:55:45;;;;;;;2.53;1.90;;;4.20;99.90;;;;;;5022602;28;20336;-59
2024/01/18 11:58:11;;;;;;;3.83;3.07;;;4.30;99.90;;;;;;5020356;28;20203;-59
2024/01/18 12:00:38;;;;;;;2.20;1.90;;;4.40;99.90;;;;;;5019776;28;20206;-59
2024/01/18 12:03:07;;;;;;;2.70;1.90;;;4.40;99.90;;;;;;5021419;28;20227;-60
2024/01/18 12:05:33;;;;;;;3.40;2.00;;;4.30;99.90;;;;;;5022885;28;20271;-60
2024/01/18 12:08:02;;;;;;;2.37;2.10;;;4.00;99.90;;;;;;5021596;28;20202;-61
2024/01/18 12:10:31;;;;;;;4.40;1.80;;;4.00;99.90;;;;;;5019934;28;20218;-61
2024/01/18 12:12:59;;;;;;;2.20;2.00;;;3.90;99.90;;;;;;5020525;28;20230;-59
2024/01/18 12:15:25;;;;;;;2.93;2.10;;;3.80;99.90;;;;;;5022618;28;20230;-60
2024/01/18 12:17:54;;;;;;;2.20;2.00;;;4.10;99.90;;;;;;5023813;28;20672;-61
2024/01/18 12:20:21;;;;;;;4.70;1.93;;;3.80;99.90;;;;;;5023661;28;20681;-59
2024/01/18 12:22:48;;;;;;;2.50;2.30;;;3.70;99.90;;;;;;5023432;28;20259;-60
2024/01/18 12:25:16;;;;;;;2.23;2.03;;;3.90;99.90;;;;;;5026570;28;20203;-59
2024/01/18 12:27:43;;;;;;;5.60;4.00;;;4.00;99.90;;;;;;5026874;28;20232;-60
2024/01/18 12:30:11;;;;;;;2.97;2.50;;;4.00;99.90;;;;;;5024168;28;20209;-59
2024/01/18 12:32:37;;;;;;;2.30;2.10;;;4.10;99.90;;;;;;5023194;28;20215;-60
2024/01/18 12:35:06;;;;;;;2.90;2.60;;;4.20;99.90;;;;;;5024788;28;20312;-59
2024/01/18 12:37:33;;;;;;;2.50;1.90;;;4.20;99.90;;;;;;5026795;28;20218;-61
2024/01/18 12:39:59;;;;;;;4.00;2.20;;;4.20;99.90;;;;;;5025516;28;20299;-63
2024/01/18 12:42:27;;;;;;;2.97;2.30;;;4.20;99.90;;;;;;5023230;28;20222;-62
2024/01/18 12:44:57;;;;;;;4.40;3.03;;;4.20;99.90;;;;;;5023150;28;20207;-66
2024/01/18 12:47:24;;;;;;;6.30;3.93;;;4.30;99.90;;;;;;5026387;28;20726;-63
2024/01/18 12:49:54;;;;;;;3.20;2.63;;;4.40;99.90;;;;;;5026168;28;20214;-63
2024/01/18 12:52:21;;;;;;;4.20;2.90;;;4.50;99.90;;;;;;5015672;28;20210;-61